Time;durP1;ratioP1;P1;durP2;ratioP2;P2;SDS_P1;SDS_P2;PMS_P1;PMS_P2;Temp;Humidity;BMP_temperature;BMP_pressure;BME280_temperature;BME280_humidity;BME280_pressure;Samples;Min_cycle;Max_cycle;Signal;HPM_P1;HPM_P2
2022/06/13 00:01:06;;;;;;;;;;;;;;;21.78;83.87;96931.34;601782;236;66875;-70
2022/06/13 00:03:33;;;;;;;;;;;;;;;21.77;83.85;96932.44;601779;233;66896;-70
2022/06/13 00:06:01;;;;;;;;;;;;;;;21.78;83.80;96938.58;601809;236;65057;-70
2022/06/13 00:08:29;;;;;;;;;;;;;;;21.77;83.82;96940.45;601861;236;66908;-70
2022/06/13 00:10:56;;;;;;;;;;;;;;;21.78;83.79;96943.92;601758;236;64462;-70
2022/06/13 00:13:23;;;;;;;;;;;;;;;21.77;83.83;96945.81;601826;236;62997;-70
2022/06/13 00:15:51;;;;;;;;;;;;;;;21.77;83.86;96936.95;601778;236;64713;-66
2022/06/13 00:18:18;;;;;;;;;;;;;;;21.77;83.84;96936.95;601818;236;64712;-66
2022/06/13 00:20:46;;;;;;;;;;;;;;;21.77;83.85;96940.45;601835;236;62896;-66
2022/06/13 00:23:13;;;;;;;;;;;;;;;21.76;83.85;96936.16;601790;236;65901;-66
2022/06/13 00:25:41;;;;;;;;;;;;;;;21.76;83.75;96938.84;601760;234;67411;-67
2022/06/13 00:28:08;;;;;;;;;;;;;;;21.77;83.75;96937.78;601766;236;65150;-66
2022/06/13 00:30:37;;;;;;;;;;;;;;;21.77;83.77;96940.45;601792;236;67270;-66
2022/06/13 00:33:05;;;;;;;;;;;;;;;21.76;83.79;96944.19;601828;236;66987;-67
2022/06/13 00:35:32;;;;;;;;;;;;;;;21.76;83.83;96946.86;601793;236;64876;-67
2022/06/13 00:38:00;;;;;;;;;;;;;;;21.76;83.83;96938.84;601759;236;67169;-67
2022/06/13 00:40:27;;;;;;;;;;;;;;;21.77;83.86;96939.63;601753;236;68034;-67
2022/06/13 00:42:54;;;;;;;;;;;;;;;21.76;83.87;96935.38;601811;236;64946;-67
2022/06/13 00:45:23;;;;;;;;;;;;;;;21.76;83.90;96938.84;601768;236;66946;-67
2022/06/13 00:47:52;;;;;;;;;;;;;;;21.76;83.92;96944.19;601827;236;64890;-67
2022/06/13 00:50:24;;;;;;;;;;;;;;;21.77;83.94;96937.78;601741;236;66033;-67
2022/06/13 00:53:11;;;;;;;;;;;;;;;21.76;83.93;96940.72;601747;234;67342;-66
2022/06/13 00:55:43;;;;;;;;;;;;;;;21.76;83.92;96932.70;601794;236;66956;-66
2022/06/13 00:58:12;;;;;;;;;;;;;;;21.76;84.02;96940.72;601794;233;64892;-66
2022/06/13 01:00:41;;;;;;;;;;;;;;;21.75;83.98;96945.28;601789;236;67121;-67
2022/06/13 01:03:08;;;;;;;;;;;;;;;21.76;83.96;96940.72;601796;236;65009;-68
2022/06/13 01:05:37;;;;;;;;;;;;;;;21.75;83.96;96933.78;601761;236;62916;-71
2022/06/13 01:08:07;;;;;;;;;;;;;;;21.74;83.96;96938.31;601798;236;67263;-71
2022/06/13 01:13:25;;;;;;;;;;;;;;;21.76;83.98;96946.07;601769;236;65040;-72
2022/06/13 01:15:54;;;;;;;;;;;;;;;21.75;84.02;96939.93;601713;233;64861;-71
2022/06/13 01:18:23;;;;;;;;;;;;;;;21.75;83.95;96939.13;601768;233;64977;-71
2022/06/13 01:21:08;;;;;;;;;;;;;;;21.73;83.91;96940.19;601745;233;62890;-70
2022/06/13 01:23:41;;;;;;;;;;;;;;;21.74;83.93;96940.98;601788;236;64847;-71
2022/06/13 01:26:10;;;;;;;;;;;;;;;21.73;83.96;96948.22;601739;236;67102;-71
2022/06/13 01:28:39;;;;;;;;;;;;;;;21.74;83.92;96949.01;601772;236;65033;-71
2022/06/13 01:31:14;;;;;;;;;;;;;;;21.73;83.92;96948.22;601754;236;67155;-71
2022/06/13 01:33:43;;;;;;;;;;;;;;;21.74;83.94;96940.98;601845;236;66671;-71
2022/06/13 01:36:29;;;;;;;;;;;;;;;21.73;83.95;96942.08;601772;236;64884;-71
2022/06/13 01:38:58;;;;;;;;;;;;;;;21.73;83.97;96934.05;601785;236;68111;-72
2022/06/13 01:41:30;;;;;;;;;;;;;;;21.73;83.96;96932.17;601723;233;67233;-71
2022/06/13 01:44:09;;;;;;;;;;;;;;;21.73;83.96;96924.14;601782;236;64928;-70
2022/06/13 01:46:37;;;;;;;;;;;;;;;21.73;83.99;96920.67;601777;236;67214;-71
2022/06/13 01:49:09;;;;;;;;;;;;;;;21.73;84.00;96923.35;601773;233;66828;-71
2022/06/13 01:51:45;;;;;;;;;;;;;;;21.73;84.00;96920.67;601717;233;65847;-66
2022/06/13 01:54:20;;;;;;;;;;;;;;;21.73;84.00;96918.80;601775;236;67198;-66
2022/06/13 01:57:01;;;;;;;;;;;;;;;21.72;84.02;96922.55;601737;236;64897;-66
2022/06/13 01:59:30;;;;;;;;;;;;;;;21.73;84.01;96928.70;601742;233;65138;-67
2022/06/13 02:02:00;;;;;;;;;;;;;;;21.73;84.00;96926.02;601782;233;66787;-66
2022/06/13 02:04:31;;;;;;;;;;;;;;;21.72;84.03;96921.77;601747;233;67061;-69
2022/06/13 02:07:06;;;;;;;;;;;;;;;21.72;84.01;96925.23;601804;236;65149;-67
2022/06/13 02:09:36;;;;;;;;;;;;;;;21.72;83.99;96935.93;601790;233;67438;-66
2022/06/13 02:12:03;;;;;;;;;;;;;;;21.72;83.98;96932.46;601090;233;67111;-66
2022/06/13 02:14:36;;;;;;;;;;;;;;;21.72;84.01;96929.78;601020;236;64917;-67
2022/06/13 02:17:07;;;;;;;;;;;;;;;21.73;83.98;96923.35;601019;236;67178;-67
2022/06/13 02:19:36;;;;;;;;;;;;;;;21.73;83.99;96932.17;601024;233;64895;-67
2022/06/13 02:22:08;;;;;;;;;;;;;;;21.72;83.96;96927.11;600994;233;65047;-66
2022/06/13 02:24:37;;;;;;;;;;;;;;;21.72;83.94;96924.44;600939;233;67243;-66
2022/06/13 02:27:06;;;;;;;;;;;;;;;21.72;83.91;96929.78;600983;236;67050;-66
2022/06/13 02:29:35;;;;;;;;;;;;;;;21.71;83.91;96926.29;601023;236;65032;-66
2022/06/13 02:32:04;;;;;;;;;;;;;;;21.72;83.93;96924.44;600946;233;64877;-66
2022/06/13 02:34:33;;;;;;;;;;;;;;;21.71;83.93;96923.61;601018;233;65125;-66
2022/06/13 02:37:02;;;;;;;;;;;;;;;21.73;83.95;96923.35;600971;236;65040;-66
2022/06/13 02:39:37;;;;;;;;;;;;;;;21.72;83.94;96924.44;600986;233;67289;-66
2022/06/13 02:42:06;;;;;;;;;;;;;;;21.71;83.90;96926.29;600988;236;64857;-66
2022/06/13 02:44:38;;;;;;;;;;;;;;;21.71;83.91;96923.61;600981;233;62755;-66
2022/06/13 02:47:10;;;;;;;;;;;;;;;21.72;83.94;96922.55;601019;233;64830;-67
2022/06/13 02:49:39;;;;;;;;;;;;;;;21.71;84.00;96917.47;601081;233;66659;-67
2022/06/13 02:52:17;;;;;;;;;;;;;;;21.71;83.98;96923.61;601010;236;63027;-67
2022/06/13 02:54:49;;;;;;;;;;;;;;;21.71;83.94;96928.96;601020;236;67156;-68
2022/06/13 02:57:35;;;;;;;;;;;;;;;21.70;83.85;96930.05;600963;236;65102;-67
2022/06/13 03:00:04;;;;;;;;;;;;;;;21.71;83.84;96930.84;601018;236;62862;-68
2022/06/13 03:02:36;;;;;;;;;;;;;;;21.71;83.83;96933.52;600980;236;67057;-68
2022/06/13 03:05:11;;;;;;;;;;;;;;;21.70;83.83;96932.72;601151;233;64765;-68
2022/06/13 03:07:43;;;;;;;;;;;;;;;21.70;83.83;96938.08;600960;233;65019;-68
2022/06/13 03:10:14;;;;;;;;;;;;;;;21.71;83.81;96942.34;601026;233;64917;-67
2022/06/13 03:12:43;;;;;;;;;;;;;;;21.71;83.80;96945.02;600995;233;64571;-68
2022/06/13 03:15:16;;;;;;;;;;;;;;;21.70;83.79;96942.63;600963;233;62765;-68
2022/06/13 03:17:45;;;;;;;;;;;;;;;21.70;83.79;96938.08;601011;236;66540;-68
2022/06/13 03:20:16;;;;;;;;;;;;;;;21.70;83.81;96946.09;601048;233;66655;-67
2022/06/13 03:23:02;;;;;;;;;;;;;;;21.70;83.75;96942.63;600997;236;62724;-67
2022/06/13 03:25:31;;;;;;;;;;;;;;;21.70;83.78;96943.42;601034;236;65114;-67
2022/06/13 03:28:00;;;;;;;;;;;;;;;21.70;83.81;96938.08;601033;233;64710;-67
2022/06/13 03:30:29;;;;;;;;;;;;;;;21.70;83.76;96942.63;601043;236;63228;-66
2022/06/13 03:35:44;;;;;;;;;;;;;;;21.69;83.87;96943.72;601111;236;66875;-66
2022/06/13 03:38:13;;;;;;;;;;;;;;;21.69;83.74;96938.37;601025;236;63025;-67
2022/06/13 03:40:42;;;;;;;;;;;;;;;21.69;83.58;96935.70;601032;236;64578;-66
2022/06/13 03:43:14;;;;;;;;;;;;;;;21.70;83.52;96937.28;601033;236;66907;-66
2022/06/13 03:45:58;;;;;;;;;;;;;;;21.69;83.52;96941.84;600993;233;65072;-66
2022/06/13 03:48:30;;;;;;;;;;;;;;;21.69;83.58;96949.06;600970;233;67215;-66
2022/06/13 03:51:00;;;;;;;;;;;;;;;21.70;83.58;96953.33;601060;233;67025;-66
2022/06/13 03:53:29;;;;;;;;;;;;;;;21.69;83.52;96949.06;601014;236;62990;-66
2022/06/13 03:55:58;;;;;;;;;;;;;;;21.70;83.51;96950.66;601008;236;64659;-66
2022/06/13 03:58:27;;;;;;;;;;;;;;;21.69;83.53;96952.53;601031;233;65019;-67
2022/06/13 04:01:07;;;;;;;;;;;;;;;21.68;83.55;96950.13;601043;233;64798;-66
2022/06/13 04:03:36;;;;;;;;;;;;;;;21.69;83.54;96943.72;600989;236;65016;-67
2022/06/13 04:06:05;;;;;;;;;;;;;;;21.69;83.51;96946.39;601055;236;66804;-66
2022/06/13 04:08:37;;;;;;;;;;;;;;;21.69;83.56;96952.53;600997;236;62732;-70
2022/06/13 04:11:09;;;;;;;;;;;;;;;21.68;83.63;96950.13;601508;236;67147;-70
2022/06/13 04:13:38;;;;;;;;;;;;;;;21.69;83.62;96949.06;601749;233;67404;-71
2022/06/13 04:16:13;;;;;;;;;;;;;;;21.69;83.71;96947.19;601646;233;65025;-70
2022/06/13 04:18:52;;;;;;;;;;;;;;;21.68;83.72;96955.47;601757;236;67177;-70
2022/06/13 04:21:33;;;;;;;;;;;;;;;21.68;83.79;96955.47;601798;233;66790;-70
2022/06/13 04:24:02;;;;;;;;;;;;;;;21.68;83.80;96948.24;601789;236;62915;-70
2022/06/13 04:26:47;;;;;;;;;;;;;;;21.68;83.86;96953.59;601778;233;65089;-70
2022/06/13 04:29:16;;;;;;;;;;;;;;;21.67;83.82;96952.00;601774;236;66932;-71
2022/06/13 04:31:44;;;;;;;;;;;;;;;21.67;83.82;96946.66;601804;233;63033;-71
2022/06/13 04:34:19;;;;;;;;;;;;;;;21.67;83.85;96953.89;601790;236;64580;-71
2022/06/13 04:36:47;;;;;;;;;;;;;;;21.67;83.87;96960.03;601834;236;64906;-70
2022/06/13 04:39:16;;;;;;;;;;;;;;;21.66;83.92;96950.42;601749;236;65121;-71
2022/06/13 04:41:45;;;;;;;;;;;;;;;21.67;83.94;96956.56;601780;236;65305;-71
2022/06/13 04:44:14;;;;;;;;;;;;;;;21.67;83.96;96961.91;601793;236;64996;-71
2022/06/13 04:46:42;;;;;;;;;;;;;;;21.66;84.06;96961.11;601774;236;62833;-70
2022/06/13 04:49:11;;;;;;;;;;;;;;;21.66;83.90;96958.44;601766;236;67329;-71
2022/06/13 04:51:40;;;;;;;;;;;;;;;21.66;83.84;96955.77;601823;233;64893;-72
2022/06/13 04:54:09;;;;;;;;;;;;;;;21.66;83.84;96950.42;601787;236;65067;-71
2022/06/13 04:56:37;;;;;;;;;;;;;;;21.67;83.83;96956.56;601721;233;67191;-71
2022/06/13 04:59:05;;;;;;;;;;;;;;;21.66;83.82;96961.11;601777;236;67057;-71
2022/06/13 05:01:37;;;;;;;;;;;;;;;21.66;83.80;96953.09;601772;236;65176;-71
2022/06/13 05:04:06;;;;;;;;;;;;;;;21.67;83.79;96953.89;601770;233;67087;-70
2022/06/13 05:06:53;;;;;;;;;;;;;;;21.66;83.77;96953.09;601796;236;66920;-71
2022/06/13 05:09:25;;;;;;;;;;;;;;;21.67;83.79;96948.53;601777;236;62696;-71
2022/06/13 05:11:54;;;;;;;;;;;;;;;21.66;83.83;96954.94;601745;236;67048;-72
2022/06/13 05:14:23;;;;;;;;;;;;;;;21.66;83.88;96953.09;601793;236;64818;-71
2022/06/13 05:16:59;;;;;;;;;;;;;;;21.66;83.89;96958.44;601627;234;64916;-71
2022/06/13 05:19:37;;;;;;;;;;;;;;;21.66;83.87;96961.11;601641;236;67150;-70
2022/06/13 05:22:15;;;;;;;;;;;;;;;21.67;83.89;96969.94;601798;233;66823;-71
2022/06/13 05:24:59;;;;;;;;;;;;;;;21.66;83.90;96965.64;601109;236;65144;-70
2022/06/13 05:27:27;;;;;;;;;;;;;;;21.65;83.90;96970.20;601615;233;63779;-70
2022/06/13 05:29:56;;;;;;;;;;;;;;;21.66;83.93;96957.62;601739;236;65277;-71
2022/06/13 05:32:24;;;;;;;;;;;;;;;21.65;83.95;96956.03;601745;236;64902;-71
2022/06/13 05:34:53;;;;;;;;;;;;;;;21.66;83.99;96960.30;601796;236;67267;-71
2022/06/13 05:37:21;;;;;;;;;;;;;;;21.66;84.01;96965.64;601775;236;67028;-72
2022/06/13 05:39:48;;;;;;;;;;;;;;;21.65;84.02;96966.73;601764;236;64988;-72
2022/06/13 05:42:15;;;;;;;;;;;;;;;21.65;83.95;96967.52;601754;236;67256;-72
2022/06/13 05:44:43;;;;;;;;;;;;;;;21.65;83.91;96972.08;601736;236;67970;-72
2022/06/13 05:47:15;;;;;;;;;;;;;;;21.65;83.81;96970.20;601798;233;65082;-71
2022/06/13 05:49:43;;;;;;;;;;;;;;;21.65;83.84;96967.52;601705;233;64502;-71
2022/06/13 05:52:11;;;;;;;;;;;;;;;21.65;83.85;96966.73;601760;236;67071;-71
2022/06/13 05:54:39;;;;;;;;;;;;;;;21.65;83.93;96977.42;601605;236;65075;-69
2022/06/13 05:57:06;;;;;;;;;;;;;;;21.63;82.33;96979.56;609436;229;67473;-69
2022/06/13 05:59:34;;;;;;;;;;;;;;;21.64;83.60;96981.19;618862;229;66898;-67
2022/06/13 06:02:01;;;;;;;;;;;;;;;21.65;84.08;96982.77;618786;229;64982;-70
2022/06/13 06:04:29;;;;;;;;;;;;;;;21.65;84.07;96990.80;618151;229;67014;-72
2022/06/13 06:06:56;;;;;;;;;;;;;;;21.64;83.30;96989.20;618769;229;66836;-69
2022/06/13 06:09:24;;;;;;;;;;;;;;;21.65;83.63;96993.47;618752;229;64869;-69
2022/06/13 06:11:51;;;;;;;;;;;;;;;21.65;83.51;97001.50;618611;229;67059;-69
2022/06/13 06:14:19;;;;;;;;;;;;;;;21.63;82.93;97001.75;618642;229;66929;-69
2022/06/13 06:16:46;;;;;;;;;;;;;;;21.64;82.99;96998.02;616294;229;64911;-69
2022/06/13 06:19:14;;;;;;;;;;;;;;;21.65;83.28;96994.27;612210;231;67002;-66
2022/06/13 06:21:41;;;;;;;;;;;;;;;21.65;83.53;96996.94;612325;231;66842;-69
2022/06/13 06:24:09;;;;;;;;;;;;;;;21.67;83.31;96999.35;612239;231;65247;-68
2022/06/13 06:26:36;;;;;;;;;;;;;;;21.66;83.34;96987.86;612261;231;64904;-69
2022/06/13 06:29:04;;;;;;;;;;;;;;;21.67;83.61;96996.68;612317;231;64808;-69
2022/06/13 06:31:32;;;;;;;;;;;;;;;21.67;83.51;97007.38;612250;231;62760;-69
2022/06/13 06:33:59;;;;;;;;;;;;;;;21.67;83.40;97010.05;612237;231;67058;-69
2022/06/13 06:36:27;;;;;;;;;;;;;;;21.67;83.31;97024.22;612206;231;66722;-68
2022/06/13 06:38:55;;;;;;;;;;;;;;;21.68;83.15;97023.13;612341;231;64956;-69
2022/06/13 06:41:22;;;;;;;;;;;;;;;21.68;83.05;97022.34;612295;231;66994;-69
2022/06/13 06:43:50;;;;;;;;;;;;;;;21.68;83.09;97025.81;612258;231;65157;-74
2022/06/13 06:46:17;;;;;;;;;;;;;;;21.69;83.02;97029.30;612268;231;64856;-74
2022/06/13 06:48:45;;;;;;;;;;;;;;;21.70;83.03;97036.24;612344;231;67076;-74
2022/06/13 06:51:14;;;;;;;;;;;;;;;21.70;83.01;97044.27;612324;231;66877;-73
2022/06/13 07:01:59;;;;;;;;;;;;;;;21.70;83.01;97058.44;612343;231;63943;-74
2022/06/13 07:04:27;;;;;;;;;;;;;;;21.70;82.96;97053.09;612291;231;64348;-72
2022/06/13 07:06:55;;;;;;;;;;;;;;;21.70;82.97;97052.29;612286;231;64760;-74
2022/06/13 07:09:22;;;;;;;;;;;;;;;21.70;82.97;97065.66;612391;231;62777;-74
2022/06/13 07:11:56;;;;;;;;;;;;;;;21.71;82.96;97061.91;611666;231;65156;-74
2022/06/13 07:14:25;;;;;;;;;;;;;;;21.71;82.96;97056.55;611708;232;64838;-73
2022/06/13 07:16:53;;;;;;;;;;;;;;;21.71;82.94;97061.91;611630;232;64845;-72
2022/06/13 07:19:21;;;;;;;;;;;;;;;21.71;82.95;97057.35;611615;232;67191;-76
2022/06/13 07:21:48;;;;;;;;;;;;;;;21.72;82.98;97052.83;611654;232;64788;-66
2022/06/13 07:24:16;;;;;;;;;;;;;;;21.72;82.84;97050.15;611781;232;63013;-65
2022/06/13 07:26:44;;;;;;;;;;;;;;;21.71;82.73;97054.67;611757;232;64778;-67
2022/06/13 07:29:11;;;;;;;;;;;;;;;21.72;82.76;97052.83;611699;232;64585;-68
2022/06/13 07:31:40;;;;;;;;;;;;;;;21.72;82.72;97053.62;611730;232;62778;-64
2022/06/13 07:34:09;;;;;;;;;;;;;;;21.73;82.67;97049.06;611717;232;68153;-64
2022/06/13 07:36:37;;;;;;;;;;;;;;;21.72;82.68;97053.62;611594;232;66431;-65
2022/06/13 07:39:04;;;;;;;;;;;;;;;21.72;82.62;97050.15;611648;232;62765;-67
2022/06/13 07:41:32;;;;;;;;;;;;;;;21.72;82.45;97055.50;611673;231;64301;-68
2022/06/13 07:44:00;;;;;;;;;;;;;;;21.72;82.41;97058.17;611604;232;66685;-68
2022/06/13 07:46:29;;;;;;;;;;;;;;;21.73;82.30;97059.77;611738;232;64847;-67
2022/06/13 07:48:57;;;;;;;;;;;;;;;21.73;82.31;97059.77;611723;232;64318;-68
2022/06/13 07:51:25;;;;;;;;;;;;;;;21.72;82.22;97060.85;611639;232;66757;-69
2022/06/13 07:53:53;;;;;;;;;;;;;;;21.73;82.19;97065.91;611629;232;64918;-69
2022/06/13 07:56:22;;;;;;;;;;;;;;;21.73;82.21;97060.55;611675;232;67044;-69
2022/06/13 07:58:51;;;;;;;;;;;;;;;21.73;82.18;97060.55;611647;231;67171;-67
2022/06/13 08:01:19;;;;;;;;;;;;;;;21.73;82.23;97055.20;611725;232;62841;-66
2022/06/13 08:03:47;;;;;;;;;;;;;;;21.73;82.19;97051.73;611527;232;67263;-67
2022/06/13 08:06:15;;;;;;;;;;;;;;;21.73;82.12;97049.06;611711;232;66993;-66
2022/06/13 08:08:45;;;;;;;;;;;;;;;21.73;82.12;97044.51;611720;232;62848;-67
2022/06/13 08:11:13;;;;;;;;;;;;;;;21.72;82.14;97037.57;611611;232;68321;-67
2022/06/13 08:13:41;;;;;;;;;;;;;;;21.73;82.11;97038.37;611713;232;66909;-67
2022/06/13 08:16:09;;;;;;;;;;;;;;;21.73;82.10;97041.83;611783;232;61956;-67
2022/06/13 08:18:37;;;;;;;;;;;;;;;21.73;82.02;97044.51;611631;232;64276;-68
2022/06/13 08:21:05;;;;;;;;;;;;;;;21.74;82.03;97039.95;611673;232;67804;-68
2022/06/13 08:23:33;;;;;;;;;;;;;;;21.75;81.97;97035.42;611646;232;64981;-68
2022/06/13 08:26:01;;;;;;;;;;;;;;;21.72;81.98;97032.22;608681;232;67392;-68
2022/06/13 08:28:28;;;;;;;;;;;;;;;21.73;81.98;97039.16;598296;237;68910;-67
2022/06/13 08:30:57;;;;;;;;;;;;;;;21.75;82.00;97035.42;611587;232;62874;-67
2022/06/13 08:33:25;;;;;;;;;;;;;;;21.75;82.01;97035.42;611545;232;67515;-64
2022/06/13 08:35:53;;;;;;;;;;;;;;;21.73;82.01;97039.16;611566;232;66885;-67
2022/06/13 08:38:21;;;;;;;;;;;;;;;21.74;82.07;97037.28;611621;232;62705;-70
2022/06/13 08:40:53;;;;;;;;;;;;;;;21.75;82.09;97035.42;611565;232;64890;-69
2022/06/13 08:43:24;;;;;;;;;;;;;;;21.75;82.10;97030.08;612733;229;44464;-69
2022/06/13 08:45:53;;;;;;;;;;;;;;;21.73;82.12;97028.46;611457;232;62768;-69
2022/06/13 08:48:25;;;;;;;;;;;;;;;21.75;82.15;97025.52;611493;231;64835;-69
2022/06/13 08:50:54;;;;;;;;;;;;;;;21.74;82.34;97026.58;611550;229;66889;-68
2022/06/13 08:53:23;;;;;;;;;;;;;;;21.74;82.64;97023.91;611482;229;62761;-69
2022/06/13 08:56:02;;;;;;;;;;;;;;;21.74;82.82;97021.23;611558;232;67209;-68
2022/06/13 08:58:31;;;;;;;;;;;;;;;21.75;82.94;97014.03;611637;229;66833;-68
2022/06/13 09:01:01;;;;;;;;;;;;;;;21.75;83.09;97009.47;611552;232;65109;-68
2022/06/13 09:03:42;;;;;;;;;;;;;;;21.75;83.14;97009.47;611519;231;67112;-68
2022/06/13 09:06:14;;;;;;;;;;;;;;;21.74;83.17;97005.18;611579;231;66626;-70
2022/06/13 09:08:41;;;;;;;;;;;;;;;21.74;83.22;97002.50;611496;232;65079;-68
2022/06/13 09:11:19;;;;;;;;;;;;;;;21.75;83.26;96997.98;608984;229;67173;-67
2022/06/13 09:13:48;;;;;;;;;;;;;;;21.75;83.26;96998.77;607718;233;67230;-68
2022/06/13 09:16:17;;;;;;;;;;;;;;;21.75;83.33;96988.08;607685;233;65259;-68
2022/06/13 09:18:46;;;;;;;;;;;;;;;21.75;83.44;96990.75;607588;232;67010;-68
2022/06/13 09:21:16;;;;;;;;;;;;;;;21.75;83.45;96996.09;607693;232;67038;-70
2022/06/13 09:23:54;;;;;;;;;;;;;;;21.75;83.47;96989.95;607542;232;64869;-68
2022/06/13 09:26:23;;;;;;;;;;;;;;;21.76;83.44;96988.87;607694;233;67152;-69
2022/06/13 09:28:55;;;;;;;;;;;;;;;21.75;83.51;96980.05;605770;233;66910;-69
2022/06/13 09:31:35;;;;;;;;;;;;;;;21.76;83.51;96976.29;607603;233;64887;-69
2022/06/13 09:34:21;;;;;;;;;;;;;;;21.76;83.51;96973.61;607636;233;66708;-69
2022/06/13 09:36:50;;;;;;;;;;;;;;;21.76;83.53;96978.97;607668;233;66939;-69
2022/06/13 09:39:18;;;;;;;;;;;;;;;21.76;83.52;96972.82;606627;232;62748;-69
2022/06/13 09:42:04;;;;;;;;;;;;;;;21.76;83.56;96968.27;607531;233;65909;-69
2022/06/13 09:44:39;;;;;;;;;;;;;;;21.76;83.60;96973.61;607657;233;66842;-68
2022/06/13 09:47:08;;;;;;;;;;;;;;;21.76;83.65;96970.94;607655;233;65168;-69
2022/06/13 09:49:52;;;;;;;;;;;;;;;21.76;83.53;96968.27;607639;232;67046;-69
2022/06/13 09:52:24;;;;;;;;;;;;;;;21.76;83.57;96957.56;607445;233;66906;-68
2022/06/13 09:55:03;;;;;;;;;;;;;;;21.77;83.56;96969.88;606707;233;65221;-69
2022/06/13 09:57:31;;;;;;;;;;;;;;;21.75;83.61;96958.66;607475;233;64846;-66
2022/06/13 10:03:32;;;;;;;;;;;;;;;21.78;81.89;96963.45;611272;232;41397;-68
2022/06/13 10:06:03;;;;;;;;;;;;;;;21.79;83.18;96961.56;610434;232;67189;-68
2022/06/13 10:08:38;;;;;;;;;;;;;;;21.77;83.33;96956.51;611753;232;66892;-68
2022/06/13 10:11:16;;;;;;;;;;;;;;;21.76;83.32;96952.22;615414;229;65295;-68
2022/06/13 10:13:51;;;;;;;;;;;;;;;21.77;83.29;96953.83;617457;229;73064;-69
2022/06/13 10:16:27;;;;;;;;;;;;;;;21.77;83.22;96942.31;617561;229;64774;-67
2022/06/13 10:19:05;;;;;;;;;;;;;;;21.76;83.22;96941.52;617532;229;65172;-67
2022/06/13 10:21:37;;;;;;;;;;;;;;;21.76;83.24;96941.52;617459;229;67239;-68
2022/06/13 10:24:23;;;;;;;;;;;;;;;21.76;83.31;96944.19;617573;229;64707;-68
2022/06/13 10:26:54;;;;;;;;;;;;;;;21.77;83.29;96940.45;617280;229;46013;-68
2022/06/13 10:29:27;;;;;;;;;;;;;;;21.77;83.31;96936.95;617563;229;67178;-68
2022/06/13 10:31:58;;;;;;;;;;;;;;;21.77;83.32;96929.76;616934;229;49391;-69
2022/06/13 10:34:30;;;;;;;;;;;;;;;21.77;83.28;96928.94;617438;229;65017;-69
2022/06/13 10:37:08;;;;;;;;;;;;;;;21.77;83.28;96926.26;617543;229;67168;-67
2022/06/13 10:39:36;;;;;;;;;;;;;;;21.77;83.22;96923.59;617532;229;66986;-68
2022/06/13 10:42:07;;;;;;;;;;;;;;;21.78;83.26;96923.31;617531;229;65278;-68
2022/06/13 10:44:35;;;;;;;;;;;;;;;21.77;83.29;96916.38;617590;229;64849;-69
2022/06/13 10:47:05;;;;;;;;;;;;;;;21.77;83.24;96916.38;617528;227;64925;-68
2022/06/13 10:49:34;;;;;;;;;;;;;;;21.76;83.24;96912.09;617426;229;62876;-68
2022/06/13 10:52:03;;;;;;;;;;;;;;;21.77;83.17;96905.69;617570;229;66627;-67
2022/06/13 10:54:32;;;;;;;;;;;;;;;21.77;82.92;96904.86;616135;229;66896;-67
2022/06/13 10:57:04;;;;;;;;;;;;;;;21.77;82.61;96904.86;617216;229;67491;-67
2022/06/13 10:59:33;;;;;;;;;;;;;;;21.76;82.35;96903.27;617611;229;67445;-67
2022/06/13 11:02:02;;;;;;;;;;;;;;;21.77;82.17;96894.98;617553;229;64882;-67
2022/06/13 11:04:31;;;;;;;;;;;;;;;21.77;82.03;96894.98;617596;229;63897;-67
2022/06/13 11:07:00;;;;;;;;;;;;;;;21.77;81.92;96891.48;617619;229;64891;-67
2022/06/13 11:09:29;;;;;;;;;;;;;;;21.78;81.84;96885.08;617620;229;64760;-67
2022/06/13 11:11:58;;;;;;;;;;;;;;;21.76;81.76;96882.67;611618;232;62863;-68
2022/06/13 11:14:27;;;;;;;;;;;;;;;21.76;81.63;96888.02;611703;232;64886;-69
2022/06/13 11:22:45;;;;;;;;;;;;;;;21.76;81.36;96874.64;602684;235;64926;-67
2022/06/13 11:25:21;;;;;;;;;;;;;;;21.76;81.34;96869.30;602591;235;67745;-69
2022/06/13 11:27:50;;;;;;;;;;;;;;;21.77;81.29;96862.89;602594;235;65140;-69
2022/06/13 11:30:19;;;;;;;;;;;;;;;21.77;81.75;96860.21;602017;235;67100;-68
2022/06/13 11:33:02;;;;;;;;;;;;;;;21.77;81.89;96867.41;602687;235;66880;-68
2022/06/13 11:35:35;;;;;;;;;;;;;;;21.76;81.80;96855.13;602730;235;65125;-69
2022/06/13 11:38:13;;;;;;;;;;;;;;;21.76;81.84;96853.24;602499;235;64846;-69
2022/06/13 11:40:40;;;;;;;;;;;;;;;21.76;81.83;96847.89;602676;235;67182;-71
2022/06/13 11:43:21;;;;;;;;;;;;;;;21.76;81.85;96842.55;602714;235;64886;-73
2022/06/13 11:45:56;;;;;;;;;;;;;;;21.77;81.82;96844.16;602565;235;66963;-74
2022/06/13 11:48:24;;;;;;;;;;;;;;;21.75;81.83;96838.28;602704;235;66883;-71
2022/06/13 11:50:56;;;;;;;;;;;;;;;21.77;82.00;96835.31;602710;235;65199;-71
2022/06/13 11:53:36;;;;;;;;;;;;;;;21.77;82.20;96828.11;602675;235;64552;-71
2022/06/13 11:56:05;;;;;;;;;;;;;;;21.79;82.37;96828.61;602756;235;66691;-70
2022/06/13 11:58:37;;;;;;;;;;;;;;;21.79;82.48;96827.81;602709;235;62789;-73
2022/06/13 12:01:05;;;;;;;;;;;;;;;21.77;82.48;96828.11;602626;235;64781;-70
2022/06/13 12:03:34;;;;;;;;;;;;;;;21.78;82.47;96823.55;602408;235;66912;-70
2022/06/13 12:06:09;;;;;;;;;;;;;;;21.77;82.42;96825.44;602570;235;65212;-71
2022/06/13 12:08:36;;;;;;;;;;;;;;;21.78;82.48;96824.34;602672;235;66756;-69
2022/06/13 12:11:08;;;;;;;;;;;;;;;21.78;82.46;96821.67;602717;235;66899;-69
2022/06/13 12:13:37;;;;;;;;;;;;;;;21.78;82.45;96819.00;601989;235;65158;-69
2022/06/13 12:16:15;;;;;;;;;;;;;;;21.78;82.44;96810.19;602609;235;65158;-69
2022/06/13 12:18:47;;;;;;;;;;;;;;;21.78;82.47;96805.63;602013;233;66880;-66
2022/06/13 12:21:18;;;;;;;;;;;;;;;21.78;82.50;96804.83;601348;236;65256;-69
2022/06/13 12:23:50;;;;;;;;;;;;;;;21.78;82.55;96796.81;601446;236;67076;-68
2022/06/13 12:26:19;;;;;;;;;;;;;;;21.78;82.53;96794.92;601584;236;64845;-69
2022/06/13 12:28:59;;;;;;;;;;;;;;;21.79;82.63;96798.39;601510;236;62764;-69
2022/06/13 12:31:29;;;;;;;;;;;;;;;21.78;82.53;96802.95;601591;236;67061;-68
2022/06/13 12:34:07;;;;;;;;;;;;;;;21.79;82.52;96796.52;600513;236;66929;-68
2022/06/13 12:36:36;;;;;;;;;;;;;;;21.79;82.43;96790.37;601578;236;64911;-66
2022/06/13 12:39:14;;;;;;;;;;;;;;;21.79;82.37;96785.02;601591;236;67055;-68
2022/06/13 12:41:47;;;;;;;;;;;;;;;21.78;82.37;96784.23;601478;236;64805;-68
2022/06/13 12:44:19;;;;;;;;;;;;;;;21.79;82.38;96779.67;601575;236;62754;-68
2022/06/13 12:46:52;;;;;;;;;;;;;;;21.80;82.33;96786.60;601645;236;67061;-68
2022/06/13 12:49:20;;;;;;;;;;;;;;;21.79;82.43;96774.31;601543;236;66935;-68
2022/06/13 12:51:53;;;;;;;;;;;;;;;21.80;82.41;96781.25;601445;236;62959;-67
2022/06/13 12:54:38;;;;;;;;;;;;;;;21.79;82.30;96774.31;601649;236;67264;-67
2022/06/13 12:57:13;;;;;;;;;;;;;;;21.78;82.34;96770.85;601642;236;66701;-68
2022/06/13 12:59:46;;;;;;;;;;;;;;;21.80;82.31;96771.38;601636;236;62756;-68
2022/06/13 13:02:15;;;;;;;;;;;;;;;21.79;82.25;96775.11;601594;236;67088;-69
2022/06/13 13:04:44;;;;;;;;;;;;;;;21.79;82.18;96780.46;601525;236;67288;-70
2022/06/13 13:07:16;;;;;;;;;;;;;;;21.80;82.13;96781.25;601608;236;65155;-68
2022/06/13 13:09:48;;;;;;;;;;;;;;;21.79;82.07;96768.97;601612;236;67039;-72
2022/06/13 13:12:34;;;;;;;;;;;;;;;21.82;80.14;96782.57;601612;236;67219;-72
2022/06/13 13:15:15;;;;;;;;;;;;;;;21.82;82.26;96779.89;601665;236;64912;-73
2022/06/13 13:17:50;;;;;;;;;;;;;;;21.80;81.86;96760.67;602474;233;67181;-71
2022/06/13 13:20:26;;;;;;;;;;;;;;;21.81;82.07;96770.28;601225;233;67146;-70
2022/06/13 13:22:56;;;;;;;;;;;;;;;21.81;82.16;96759.59;600200;236;65123;-71
2022/06/13 13:25:37;;;;;;;;;;;;;;;21.80;82.22;96755.33;600194;236;66923;-71
2022/06/13 13:28:19;;;;;;;;;;;;;;;21.81;82.23;96762.26;600188;236;64934;-72
2022/06/13 13:30:50;;;;;;;;;;;;;;;21.81;82.29;96750.77;600219;236;63094;-72